Anderson, OH

10:09 AM EST am 22. Februar 2017 (GMT -0500)
46 Coventry Dr | | Change Station

Elev 0 ft 39.33 °N, 83.03 °W | Updated 12 minutes ago

bedeckt
bedeckt
55.4 °F
Feels Like 55.4 °F
N
0.0
Wind veränderlich Wind from SE
Gusts 0.0 mph

Hüt
High -- | Low -- °F
--% Chance of Precip.
Geschter
High -- | Low -- °F
Precip. -- inch
Druck 29.93 inch
Sichtwiiti 4.0 Meile
bewölkt bedeckt 300 ft
Taupunkt 55 °F
Füechtigkeit 99%
Rainfall 0.15 inch
Snow Depth Not available.
7:14 AM 6:17 PM
Waning Crescent, 17% visible
METAR KLCK 221455Z AUTO 18007KT 4SM BR OVC003 13/13 A2993 RMK AO2 T01250125
Druck 29.93 inch
Sichtwiiti 4.0 Meile
bewölkt bedeckt 300 ft
Taupunkt 55 °F
Füechtigkeit 99%
Rainfall 0.15 inch
Snow Depth Not available.
7:14 AM 6:17 PM
Waning Crescent, 17% visible
METAR KLCK 221455Z AUTO 18007KT 4SM BR OVC003 13/13 A2993 RMK AO2 T01250125

Get Your Daily Forecast Email!

Thanks for signing up!

Be on the lookout for a verification email in your inbox.

You'll start receiving the daily forecast at 8 AM.

×

10-Day Weather Forecast

Almanac

Astronomie

Feb. 22, 2017 Rise Set
Momentani Ziit
Civil Twilight
Nautical Twilight
Astronomical Twilight
Mond
Length Of Visible Light
Längi vum Tag
Tomorrow will be .
, % of the Moon is Illuminated

Today's Extremes

State Highs State Lows

Community

WunderPhotos

Upload Photos

1,962,540 photos uploaded!

WunderBlog® & News

Nearby

Air Quality

  Air Quality AQ Index Pollutant
Not available.

Schneetüfi

Station Depth Elevation

Earthquake Activity

Stadt Distance Mag. Time & Date
Minimum magnitude displayed is 2.5.

Coastal Water Temperatures

Ort Temperatur

Stations

Nearby Weather Stations

Station Location Temp Wind uschüelig Taupunkt Füechtigkeit Wind Precip. Elev Aktualisierig Type
                   

Watches & Warnings

There are currently no watches in effect.